sensor_id;sensor_type;location;lat;lon;timestamp;pressure;altitude;pressure_sealevel;temperature;humidity
70555;BME280;58104;52.744;15.242;2022-12-18T00:00:45;102504.60;;;16.24;43.57
70555;BME280;58104;52.744;15.242;2022-12-18T00:03:11;102505.15;;;16.23;43.42
70555;BME280;58104;52.744;15.242;2022-12-18T00:05:36;102506.74;;;16.23;43.57
70555;BME280;58104;52.744;15.242;2022-12-18T00:08:02;102504.67;;;16.22;43.84
70555;BME280;58104;52.744;15.242;2022-12-18T00:10:28;102500.50;;;16.28;44.00
70555;BME280;58104;52.744;15.242;2022-12-18T00:12:52;102500.54;;;16.26;44.17
70555;BME280;58104;52.744;15.242;2022-12-18T00:15:18;102501.64;;;16.26;44.10
70555;BME280;58104;52.744;15.242;2022-12-18T00:17:44;102502.37;;;16.24;44.21
70555;BME280;58104;52.744;15.242;2022-12-18T00:20:09;102508.70;;;16.25;44.41
70555;BME280;58104;52.744;15.242;2022-12-18T00:22:34;102509.19;;;16.26;44.40
70555;BME280;58104;52.744;15.242;2022-12-18T00:25:00;102512.60;;;16.23;44.57
70555;BME280;58104;52.744;15.242;2022-12-18T00:27:25;102514.03;;;16.26;44.41
70555;BME280;58104;52.744;15.242;2022-12-18T00:29:51;102514.94;;;16.26;44.50
70555;BME280;58104;52.744;15.242;2022-12-18T00:32:16;102517.54;;;16.25;44.63
70555;BME280;58104;52.744;15.242;2022-12-18T00:34:42;102518.43;;;16.27;44.81
70555;BME280;58104;52.744;15.242;2022-12-18T00:37:07;102516.37;;;16.23;44.67
70555;BME280;58104;52.744;15.242;2022-12-18T00:39:32;102514.31;;;16.18;44.86
70555;BME280;58104;52.744;15.242;2022-12-18T00:41:57;102518.54;;;16.14;45.27
70555;BME280;58104;52.744;15.242;2022-12-18T00:44:23;102519.87;;;16.25;45.22
70555;BME280;58104;52.744;15.242;2022-12-18T00:46:49;102517.45;;;16.33;45.10
70555;BME280;58104;52.744;15.242;2022-12-18T00:49:15;102520.02;;;16.30;44.91
70555;BME280;58104;52.744;15.242;2022-12-18T00:51:39;102525.54;;;16.26;45.12
70555;BME280;58104;52.744;15.242;2022-12-18T00:54:05;102524.56;;;16.19;45.27
70555;BME280;58104;52.744;15.242;2022-12-18T00:56:30;102526.56;;;16.27;45.11
70555;BME280;58104;52.744;15.242;2022-12-18T00:58:55;102526.33;;;16.17;45.63
70555;BME280;58104;52.744;15.242;2022-12-18T01:01:21;102530.61;;;16.25;45.49
70555;BME280;58104;52.744;15.242;2022-12-18T01:03:46;102535.55;;;16.23;45.53
70555;BME280;58104;52.744;15.242;2022-12-18T01:06:14;102536.14;;;16.26;45.63
70555;BME280;58104;52.744;15.242;2022-12-18T01:08:38;102534.43;;;16.21;45.62
70555;BME280;58104;52.744;15.242;2022-12-18T01:11:08;102538.95;;;16.21;46.08
70555;BME280;58104;52.744;15.242;2022-12-18T01:13:28;102542.71;;;16.20;46.47
70555;BME280;58104;52.744;15.242;2022-12-18T01:15:54;102546.59;;;16.16;46.66
70555;BME280;58104;52.744;15.242;2022-12-18T01:18:20;102549.35;;;16.11;46.75
70555;BME280;58104;52.744;15.242;2022-12-18T01:20:45;102549.52;;;16.18;46.20
70555;BME280;58104;52.744;15.242;2022-12-18T01:23:10;102548.26;;;16.17;46.65
70555;BME280;58104;52.744;15.242;2022-12-18T01:25:36;102550.17;;;16.14;46.90
70555;BME280;58104;52.744;15.242;2022-12-18T01:28:01;102556.02;;;16.12;47.07
70555;BME280;58104;52.744;15.242;2022-12-18T01:30:26;102553.93;;;16.10;47.36
70555;BME280;58104;52.744;15.242;2022-12-18T01:32:51;102554.06;;;16.04;47.21
70555;BME280;58104;52.744;15.242;2022-12-18T01:35:17;102555.88;;;16.04;47.42
70555;BME280;58104;52.744;15.242;2022-12-18T01:37:42;102555.07;;;16.05;47.73
70555;BME280;58104;52.744;15.242;2022-12-18T01:40:09;102556.89;;;16.10;47.80
70555;BME280;58104;52.744;15.242;2022-12-18T01:42:34;102551.43;;;16.13;48.06
70555;BME280;58104;52.744;15.242;2022-12-18T01:45:04;102549.75;;;16.05;48.42
70555;BME280;58104;52.744;15.242;2022-12-18T01:47:27;102551.93;;;16.09;48.49
70555;BME280;58104;52.744;15.242;2022-12-18T01:49:50;102556.13;;;16.11;48.26
70555;BME280;58104;52.744;15.242;2022-12-18T01:52:15;102560.50;;;16.12;48.12
70555;BME280;58104;52.744;15.242;2022-12-18T01:54:40;102561.06;;;16.14;48.07
70555;BME280;58104;52.744;15.242;2022-12-18T01:57:06;102558.45;;;16.05;48.25
70555;BME280;58104;52.744;15.242;2022-12-18T01:59:32;102563.31;;;16.09;48.36
70555;BME280;58104;52.744;15.242;2022-12-18T02:01:56;102566.01;;;16.08;48.24
70555;BME280;58104;52.744;15.242;2022-12-18T02:04:24;102567.42;;;16.07;48.60
70555;BME280;58104;52.744;15.242;2022-12-18T02:06:49;102570.26;;;16.11;48.42
70555;BME280;58104;52.744;15.242;2022-12-18T02:09:15;102567.70;;;16.10;48.39
70555;BME280;58104;52.744;15.242;2022-12-18T02:11:44;102566.08;;;16.08;48.44
70555;BME280;58104;52.744;15.242;2022-12-18T02:14:12;102566.45;;;16.05;48.39
70555;BME280;58104;52.744;15.242;2022-12-18T02:16:37;102571.09;;;16.03;48.26
70555;BME280;58104;52.744;15.242;2022-12-18T02:18:58;102573.83;;;16.00;48.50
70555;BME280;58104;52.744;15.242;2022-12-18T02:21:28;102578.43;;;16.03;49.20
70555;BME280;58104;52.744;15.242;2022-12-18T02:23:51;102579.52;;;16.07;49.42
70555;BME280;58104;52.744;15.242;2022-12-18T02:26:16;102579.52;;;16.08;49.22
70555;BME280;58104;52.744;15.242;2022-12-18T02:28:40;102579.80;;;16.16;49.20
70555;BME280;58104;52.744;15.242;2022-12-18T02:31:03;102583.22;;;16.18;48.59
70555;BME280;58104;52.744;15.242;2022-12-18T02:33:27;102585.41;;;16.09;48.58
70555;BME280;58104;52.744;15.242;2022-12-18T02:35:52;102585.55;;;16.03;48.78
70555;BME280;58104;52.744;15.242;2022-12-18T02:38:17;102583.35;;;16.10;48.94
70555;BME280;58104;52.744;15.242;2022-12-18T02:40:42;102585.02;;;16.14;48.86
70555;BME280;58104;52.744;15.242;2022-12-18T02:43:08;102586.80;;;16.14;49.13
70555;BME280;58104;52.744;15.242;2022-12-18T02:45:33;102590.07;;;16.11;49.32
70555;BME280;58104;52.744;15.242;2022-12-18T02:47:58;102587.37;;;16.16;49.08
70555;BME280;58104;52.744;15.242;2022-12-18T02:50:29;102587.82;;;16.11;49.27
70555;BME280;58104;52.744;15.242;2022-12-18T02:52:57;102589.91;;;16.06;49.37
70555;BME280;58104;52.744;15.242;2022-12-18T02:55:24;102591.41;;;16.07;49.32
70555;BME280;58104;52.744;15.242;2022-12-18T02:57:44;102590.72;;;16.02;49.51
70555;BME280;58104;52.744;15.242;2022-12-18T03:00:10;102589.11;;;16.07;49.42
70555;BME280;58104;52.744;15.242;2022-12-18T03:02:37;102581.11;;;16.06;50.10
70555;BME280;58104;52.744;15.242;2022-12-18T03:05:01;102581.11;;;16.09;49.66
70555;BME280;58104;52.744;15.242;2022-12-18T03:07:27;102579.24;;;16.08;49.58
70555;BME280;58104;52.744;15.242;2022-12-18T03:09:50;102579.93;;;16.05;49.85
70555;BME280;58104;52.744;15.242;2022-12-18T03:12:17;102578.46;;;16.11;50.66
70555;BME280;58104;52.744;15.242;2022-12-18T03:14:40;102578.78;;;16.13;50.22
70555;BME280;58104;52.744;15.242;2022-12-18T03:17:09;102575.61;;;16.03;50.39
70555;BME280;58104;52.744;15.242;2022-12-18T03:19:32;102581.66;;;16.02;50.56
70555;BME280;58104;52.744;15.242;2022-12-18T03:21:56;102589.00;;;16.06;49.90
70555;BME280;58104;52.744;15.242;2022-12-18T03:24:21;102592.29;;;15.97;50.60
70555;BME280;58104;52.744;15.242;2022-12-18T03:26:47;102591.14;;;16.05;50.09
70555;BME280;58104;52.744;15.242;2022-12-18T03:29:15;102589.93;;;16.07;50.25
70555;BME280;58104;52.744;15.242;2022-12-18T03:31:37;102593.63;;;16.03;50.02
70555;BME280;58104;52.744;15.242;2022-12-18T03:34:04;102596.87;;;15.94;49.91
70555;BME280;58104;52.744;15.242;2022-12-18T03:36:30;102593.82;;;16.04;50.21
70555;BME280;58104;52.744;15.242;2022-12-18T03:38:53;102594.45;;;16.03;50.47
70555;BME280;58104;52.744;15.242;2022-12-18T03:41:25;102601.25;;;16.05;50.52
70555;BME280;58104;52.744;15.242;2022-12-18T03:43:49;102605.99;;;16.06;50.34
70555;BME280;58104;52.744;15.242;2022-12-18T03:46:17;102605.60;;;16.05;50.06
70555;BME280;58104;52.744;15.242;2022-12-18T03:48:40;102606.53;;;15.99;50.38
70555;BME280;58104;52.744;15.242;2022-12-18T03:51:06;102605.25;;;16.09;50.22
70555;BME280;58104;52.744;15.242;2022-12-18T03:53:34;102607.35;;;16.08;50.74
70555;BME280;58104;52.744;15.242;2022-12-18T03:55:52;102610.67;;;15.99;50.69
70555;BME280;58104;52.744;15.242;2022-12-18T03:58:20;102614.42;;;16.06;50.63
70555;BME280;58104;52.744;15.242;2022-12-18T04:00:44;102620.59;;;16.05;50.78
70555;BME280;58104;52.744;15.242;2022-12-18T04:03:10;102620.90;;;15.98;51.37
70555;BME280;58104;52.744;15.242;2022-12-18T04:05:35;102625.37;;;16.00;51.16
70555;BME280;58104;52.744;15.242;2022-12-18T04:08:00;102624.78;;;15.94;50.91
70555;BME280;58104;52.744;15.242;2022-12-18T04:10:25;102627.14;;;16.01;50.70
70555;BME280;58104;52.744;15.242;2022-12-18T04:12:50;102631.13;;;16.01;50.88
70555;BME280;58104;52.744;15.242;2022-12-18T04:15:16;102627.30;;;15.98;50.37
70555;BME280;58104;52.744;15.242;2022-12-18T04:17:47;102629.49;;;16.03;50.76
70555;BME280;58104;52.744;15.242;2022-12-18T04:20:07;102627.95;;;16.02;50.53
70555;BME280;58104;52.744;15.242;2022-12-18T04:22:32;102636.13;;;16.02;50.47
70555;BME280;58104;52.744;15.242;2022-12-18T04:24:58;102638.15;;;15.98;50.51
70555;BME280;58104;52.744;15.242;2022-12-18T04:27:23;102640.47;;;16.05;50.58
70555;BME280;58104;52.744;15.242;2022-12-18T04:29:49;102639.78;;;16.01;50.24
70555;BME280;58104;52.744;15.242;2022-12-18T04:32:15;102638.13;;;16.03;50.24
70555;BME280;58104;52.744;15.242;2022-12-18T04:34:40;102637.46;;;16.02;50.53
70555;BME280;58104;52.744;15.242;2022-12-18T04:37:06;102638.24;;;16.03;50.41
70555;BME280;58104;52.744;15.242;2022-12-18T04:39:31;102645.19;;;15.96;50.27
70555;BME280;58104;52.744;15.242;2022-12-18T04:41:57;102651.76;;;16.03;50.21
70555;BME280;58104;52.744;15.242;2022-12-18T04:44:22;102649.81;;;15.97;50.48
70555;BME280;58104;52.744;15.242;2022-12-18T04:46:48;102653.03;;;16.03;50.20
70555;BME280;58104;52.744;15.242;2022-12-18T04:49:14;102651.37;;;16.02;50.04
70555;BME280;58104;52.744;15.242;2022-12-18T04:51:39;102657.22;;;16.03;50.20
70555;BME280;58104;52.744;15.242;2022-12-18T04:54:05;102660.09;;;16.00;50.57
70555;BME280;58104;52.744;15.242;2022-12-18T04:56:31;102664.72;;;16.11;50.16
70555;BME280;58104;52.744;15.242;2022-12-18T04:58:56;102674.94;;;15.95;50.62
70555;BME280;58104;52.744;15.242;2022-12-18T05:01:21;102681.45;;;16.02;50.45
70555;BME280;58104;52.744;15.242;2022-12-18T05:03:46;102676.50;;;16.03;50.19
70555;BME280;58104;52.744;15.242;2022-12-18T05:06:12;102673.02;;;15.99;50.45
70555;BME280;58104;52.744;15.242;2022-12-18T05:08:38;102667.68;;;16.02;50.49
70555;BME280;58104;52.744;15.242;2022-12-18T05:11:04;102668.73;;;16.01;50.36
70555;BME280;58104;52.744;15.242;2022-12-18T05:13:29;102668.85;;;15.95;50.44
70555;BME280;58104;52.744;15.242;2022-12-18T05:15:54;102670.20;;;15.96;50.54
70555;BME280;58104;52.744;15.242;2022-12-18T05:18:19;102667.48;;;15.95;50.79
70555;BME280;58104;52.744;15.242;2022-12-18T05:20:44;102668.82;;;15.93;50.87
70555;BME280;58104;52.744;15.242;2022-12-18T05:23:09;102669.53;;;15.93;50.83
70555;BME280;58104;52.744;15.242;2022-12-18T05:25:35;102670.85;;;15.94;50.93
70555;BME280;58104;52.744;15.242;2022-12-18T05:28:00;102675.12;;;15.96;51.08
70555;BME280;58104;52.744;15.242;2022-12-18T05:30:26;102683.80;;;15.97;51.06
70555;BME280;58104;52.744;15.242;2022-12-18T05:32:51;102689.28;;;15.98;50.85
70555;BME280;58104;52.744;15.242;2022-12-18T05:35:16;102689.90;;;15.92;51.59
70555;BME280;58104;52.744;15.242;2022-12-18T05:37:42;102692.38;;;15.94;51.90
70555;BME280;58104;52.744;15.242;2022-12-18T05:40:09;102694.86;;;15.92;51.50
70555;BME280;58104;52.744;15.242;2022-12-18T05:42:33;102691.80;;;15.88;52.21
70555;BME280;58104;52.744;15.242;2022-12-18T05:44:58;102690.44;;;15.80;51.71
70555;BME280;58104;52.744;15.242;2022-12-18T05:47:24;102694.32;;;15.90;51.96
70555;BME280;58104;52.744;15.242;2022-12-18T05:49:49;102695.76;;;15.78;51.76
70555;BME280;58104;52.744;15.242;2022-12-18T05:52:15;102698.95;;;15.89;51.73
70555;BME280;58104;52.744;15.242;2022-12-18T05:54:40;102704.25;;;15.79;51.71
70555;BME280;58104;52.744;15.242;2022-12-18T05:57:06;102707.00;;;15.86;51.49
70555;BME280;58104;52.744;15.242;2022-12-18T05:59:31;102704.12;;;15.84;51.59
70555;BME280;58104;52.744;15.242;2022-12-18T06:01:56;102702.69;;;15.85;51.65
70555;BME280;58104;52.744;15.242;2022-12-18T06:04:22;102703.07;;;15.89;51.83
70555;BME280;58104;52.744;15.242;2022-12-18T06:06:47;102704.12;;;15.83;51.47
70555;BME280;58104;52.744;15.242;2022-12-18T06:09:12;102708.16;;;15.88;51.91
70555;BME280;58104;52.744;15.242;2022-12-18T06:11:38;102712.25;;;15.86;51.77
70555;BME280;58104;52.744;15.242;2022-12-18T06:14:05;102711.69;;;15.91;51.72
70555;BME280;58104;52.744;15.242;2022-12-18T06:16:30;102716.15;;;15.93;51.96
70555;BME280;58104;52.744;15.242;2022-12-18T06:18:56;102722.96;;;15.95;51.77
70555;BME280;58104;52.744;15.242;2022-12-18T06:21:20;102729.23;;;15.96;51.55
70555;BME280;58104;52.744;15.242;2022-12-18T06:23:46;102730.73;;;15.95;51.75
70555;BME280;58104;52.744;15.242;2022-12-18T06:26:13;102734.03;;;15.88;51.88
70555;BME280;58104;52.744;15.242;2022-12-18T06:28:37;102741.19;;;15.91;52.12
70555;BME280;58104;52.744;15.242;2022-12-18T06:31:04;102743.58;;;15.93;52.05
70555;BME280;58104;52.744;15.242;2022-12-18T06:33:28;102749.06;;;15.94;51.93
70555;BME280;58104;52.744;15.242;2022-12-18T06:35:54;102758.41;;;15.89;51.89
70555;BME280;58104;52.744;15.242;2022-12-18T06:38:19;102757.93;;;15.86;51.95
70555;BME280;58104;52.744;15.242;2022-12-18T06:40:44;102759.49;;;15.84;51.93
70555;BME280;58104;52.744;15.242;2022-12-18T06:43:09;102759.85;;;15.90;52.35
70555;BME280;58104;52.744;15.242;2022-12-18T06:45:34;102762.06;;;15.95;52.00
70555;BME280;58104;52.744;15.242;2022-12-18T06:47:59;102765.80;;;15.97;52.25
70555;BME280;58104;52.744;15.242;2022-12-18T06:50:25;102769.86;;;16.04;51.74
70555;BME280;58104;52.744;15.242;2022-12-18T06:52:51;102772.00;;;16.00;50.96
70555;BME280;58104;52.744;15.242;2022-12-18T06:55:17;102778.80;;;16.14;51.58
70555;BME280;58104;52.744;15.242;2022-12-18T06:57:42;102787.11;;;16.16;51.44
70555;BME280;58104;52.744;15.242;2022-12-18T07:00:08;102796.15;;;16.14;51.50
70555;BME280;58104;52.744;15.242;2022-12-18T07:02:33;102808.81;;;16.15;51.68
70555;BME280;58104;52.744;15.242;2022-12-18T07:04:59;102815.44;;;16.20;51.85
70555;BME280;58104;52.744;15.242;2022-12-18T07:07:25;102816.24;;;16.06;50.50
70555;BME280;58104;52.744;15.242;2022-12-18T07:09:50;102816.32;;;15.96;50.46
70555;BME280;58104;52.744;15.242;2022-12-18T07:12:16;102825.37;;;15.73;50.48
70555;BME280;58104;52.744;15.242;2022-12-18T07:14:42;102825.65;;;15.55;51.49
70555;BME280;58104;52.744;15.242;2022-12-18T07:17:07;102821.75;;;15.38;52.21
70555;BME280;58104;52.744;15.242;2022-12-18T07:19:33;102820.78;;;15.31;52.40
70555;BME280;58104;52.744;15.242;2022-12-18T07:21:58;102821.25;;;15.20;51.85
70555;BME280;58104;52.744;15.242;2022-12-18T07:24:23;102821.97;;;15.17;52.98
70555;BME280;58104;52.744;15.242;2022-12-18T07:26:49;102826.11;;;15.30;54.11
70555;BME280;58104;52.744;15.242;2022-12-18T07:29:15;102832.54;;;15.23;52.64
70555;BME280;58104;52.744;15.242;2022-12-18T07:31:40;102839.37;;;15.18;51.63
70555;BME280;58104;52.744;15.242;2022-12-18T07:34:05;102837.90;;;15.08;50.39
70555;BME280;58104;52.744;15.242;2022-12-18T07:36:31;102839.14;;;15.47;50.71
70555;BME280;58104;52.744;15.242;2022-12-18T07:38:56;102846.19;;;13.61;44.03
70555;BME280;58104;52.744;15.242;2022-12-18T07:41:22;102842.45;;;12.64;43.48
70555;BME280;58104;52.744;15.242;2022-12-18T07:43:47;102839.89;;;12.05;43.66
70555;BME280;58104;52.744;15.242;2022-12-18T07:46:14;102829.42;;;11.38;43.03
70555;BME280;58104;52.744;15.242;2022-12-18T07:48:38;102817.77;;;11.21;43.53
70555;BME280;58104;52.744;15.242;2022-12-18T07:51:05;102813.64;;;11.25;44.41
70555;BME280;58104;52.744;15.242;2022-12-18T07:53:29;102811.23;;;10.91;41.43
70555;BME280;58104;52.744;15.242;2022-12-18T07:55:55;102821.39;;;10.97;43.43
70555;BME280;58104;52.744;15.242;2022-12-18T07:58:21;102819.58;;;10.92;41.02
70555;BME280;58104;52.744;15.242;2022-12-18T08:00:47;102818.18;;;10.93;41.92
70555;BME280;58104;52.744;15.242;2022-12-18T08:03:12;102819.22;;;10.77;40.48
70555;BME280;58104;52.744;15.242;2022-12-18T08:05:38;102820.49;;;10.79;40.34
70555;BME280;58104;52.744;15.242;2022-12-18T08:08:04;102818.70;;;10.72;40.86
70555;BME280;58104;52.744;15.242;2022-12-18T08:10:29;102819.87;;;10.63;40.33
70555;BME280;58104;52.744;15.242;2022-12-18T08:12:55;102816.93;;;10.65;40.07
70555;BME280;58104;52.744;15.242;2022-12-18T08:15:21;102822.32;;;10.58;39.61
70555;BME280;58104;52.744;15.242;2022-12-18T08:17:46;102825.94;;;10.54;39.71
70555;BME280;58104;52.744;15.242;2022-12-18T08:20:11;102824.44;;;10.55;39.45
70555;BME280;58104;52.744;15.242;2022-12-18T08:22:37;102820.64;;;11.42;39.59
70555;BME280;58104;52.744;15.242;2022-12-18T08:25:01;102826.82;;;11.97;39.36
70555;BME280;58104;52.744;15.242;2022-12-18T08:27:27;102814.10;;;12.45;39.25
70555;BME280;58104;52.744;15.242;2022-12-18T08:29:52;102821.67;;;12.56;38.33
70555;BME280;58104;52.744;15.242;2022-12-18T08:32:18;102821.77;;;12.70;38.76
70555;BME280;58104;52.744;15.242;2022-12-18T08:34:44;102822.60;;;12.84;38.75
70555;BME280;58104;52.744;15.242;2022-12-18T08:37:09;102828.11;;;12.96;39.05
70555;BME280;58104;52.744;15.242;2022-12-18T08:39:35;102830.59;;;12.95;38.33
70555;BME280;58104;52.744;15.242;2022-12-18T08:42:01;102833.46;;;13.10;38.61
70555;BME280;58104;52.744;15.242;2022-12-18T08:44:27;102830.85;;;13.08;38.96
70555;BME280;58104;52.744;15.242;2022-12-18T08:46:52;102826.95;;;12.91;39.63
70555;BME280;58104;52.744;15.242;2022-12-18T08:49:17;102827.23;;;13.09;39.53
70555;BME280;58104;52.744;15.242;2022-12-18T08:51:42;102827.87;;;12.96;39.58
70555;BME280;58104;52.744;15.242;2022-12-18T08:54:11;102826.48;;;13.05;39.80
70555;BME280;58104;52.744;15.242;2022-12-18T08:56:34;102828.43;;;13.15;39.83
70555;BME280;58104;52.744;15.242;2022-12-18T08:58:59;102836.06;;;13.41;39.73
70555;BME280;58104;52.744;15.242;2022-12-18T09:01:25;102840.50;;;13.32;38.90
70555;BME280;58104;52.744;15.242;2022-12-18T09:03:51;102836.36;;;13.38;39.48
70555;BME280;58104;52.744;15.242;2022-12-18T09:06:17;102837.85;;;13.13;38.74
70555;BME280;58104;52.744;15.242;2022-12-18T09:08:41;102837.84;;;13.04;39.34
70555;BME280;58104;52.744;15.242;2022-12-18T09:11:12;102835.64;;;12.73;39.95
70555;BME280;58104;52.744;15.242;2022-12-18T09:13:32;102838.52;;;12.93;39.80
70555;BME280;58104;52.744;15.242;2022-12-18T09:15:58;102841.77;;;13.05;40.33
70555;BME280;58104;52.744;15.242;2022-12-18T09:18:23;102840.67;;;13.09;40.16
70555;BME280;58104;52.744;15.242;2022-12-18T09:20:47;102834.42;;;13.21;39.92
70555;BME280;58104;52.744;15.242;2022-12-18T09:23:13;102830.45;;;12.76;39.82
70555;BME280;58104;52.744;15.242;2022-12-18T09:25:39;102833.82;;;12.51;40.37
70555;BME280;58104;52.744;15.242;2022-12-18T09:28:09;102826.36;;;12.20;42.74
70555;BME280;58104;52.744;15.242;2022-12-18T09:30:30;102828.34;;;12.74;43.03
70555;BME280;58104;52.744;15.242;2022-12-18T09:32:55;102831.30;;;12.65;43.51
70555;BME280;58104;52.744;15.242;2022-12-18T09:35:20;102842.63;;;12.29;43.80
70555;BME280;58104;52.744;15.242;2022-12-18T09:37:46;102841.81;;;12.42;45.23
70555;BME280;58104;52.744;15.242;2022-12-18T09:40:14;102841.03;;;12.72;45.86
70555;BME280;58104;52.744;15.242;2022-12-18T09:42:37;102839.33;;;12.92;45.26
70555;BME280;58104;52.744;15.242;2022-12-18T09:45:03;102841.51;;;12.88;44.38
70555;BME280;58104;52.744;15.242;2022-12-18T09:47:32;102848.78;;;13.41;43.87
70555;BME280;58104;52.744;15.242;2022-12-18T09:49:57;102853.02;;;13.57;43.42
70555;BME280;58104;52.744;15.242;2022-12-18T09:52:25;102844.84;;;13.77;43.43
70555;BME280;58104;52.744;15.242;2022-12-18T09:54:49;102841.00;;;12.94;43.56
70555;BME280;58104;52.744;15.242;2022-12-18T09:57:14;102840.54;;;13.48;44.05
70555;BME280;58104;52.744;15.242;2022-12-18T09:59:38;102839.88;;;13.47;42.21
70555;BME280;58104;52.744;15.242;2022-12-18T10:02:12;102844.30;;;13.43;44.18
70555;BME280;58104;52.744;15.242;2022-12-18T10:04:29;102844.79;;;13.36;43.03
70555;BME280;58104;52.744;15.242;2022-12-18T10:06:56;102844.93;;;12.84;43.96
70555;BME280;58104;52.744;15.242;2022-12-18T10:09:27;102847.63;;;13.29;44.60
70555;BME280;58104;52.744;15.242;2022-12-18T10:11:48;102847.56;;;13.11;44.03
70555;BME280;58104;52.744;15.242;2022-12-18T10:14:17;102849.91;;;12.62;44.19
70555;BME280;58104;52.744;15.242;2022-12-18T10:16:41;102845.43;;;12.46;44.73
70555;BME280;58104;52.744;15.242;2022-12-18T10:19:13;102841.49;;;12.66;44.12
70555;BME280;58104;52.744;15.242;2022-12-18T10:21:31;102843.50;;;12.80;44.21
70555;BME280;58104;52.744;15.242;2022-12-18T10:23:56;102842.93;;;12.37;45.06
70555;BME280;58104;52.744;15.242;2022-12-18T10:26:17;102842.01;;;12.56;45.39
70555;BME280;58104;52.744;15.242;2022-12-18T10:28:43;102853.07;;;12.86;45.94
70555;BME280;58104;52.744;15.242;2022-12-18T10:31:15;102856.81;;;12.77;44.09
70555;BME280;58104;52.744;15.242;2022-12-18T10:33:34;102859.60;;;13.09;44.88
70555;BME280;58104;52.744;15.242;2022-12-18T10:35:59;102864.69;;;13.49;45.46
70555;BME280;58104;52.744;15.242;2022-12-18T10:38:26;102867.70;;;13.74;44.82
70555;BME280;58104;52.744;15.242;2022-12-18T10:40:52;102868.00;;;13.78;44.94
70555;BME280;58104;52.744;15.242;2022-12-18T10:43:20;102866.01;;;13.53;45.62
70555;BME280;58104;52.744;15.242;2022-12-18T10:45:42;102861.69;;;13.68;44.99
70555;BME280;58104;52.744;15.242;2022-12-18T10:50:34;102843.65;;;13.45;44.77
70555;BME280;58104;52.744;15.242;2022-12-18T10:52:59;102838.04;;;13.17;44.93
70555;BME280;58104;52.744;15.242;2022-12-18T10:55:30;102834.78;;;13.47;46.33
70555;BME280;58104;52.744;15.242;2022-12-18T10:57:49;102828.61;;;13.19;43.60
70555;BME280;58104;52.744;15.242;2022-12-18T11:00:21;102825.14;;;13.25;44.54
70555;BME280;58104;52.744;15.242;2022-12-18T11:02:40;102824.91;;;13.14;44.11
70555;BME280;58104;52.744;15.242;2022-12-18T11:10:00;102824.51;;;12.72;43.55
70555;BME280;58104;52.744;15.242;2022-12-18T11:12:22;102826.66;;;12.74;44.11
70555;BME280;58104;52.744;15.242;2022-12-18T11:14:50;102818.70;;;12.75;45.27
70555;BME280;58104;52.744;15.242;2022-12-18T11:17:19;102819.54;;;12.71;45.46
70555;BME280;58104;52.744;15.242;2022-12-18T11:19:40;102815.77;;;12.87;45.64
70555;BME280;58104;52.744;15.242;2022-12-18T11:24:31;102809.56;;;12.90;46.31
70555;BME280;58104;52.744;15.242;2022-12-18T11:26:55;102808.51;;;13.30;44.91
70555;BME280;58104;52.744;15.242;2022-12-18T11:29:27;102804.30;;;13.29;46.08
70555;BME280;58104;52.744;15.242;2022-12-18T11:31:46;102807.48;;;13.69;46.10
70555;BME280;58104;52.744;15.242;2022-12-18T11:34:13;102807.25;;;13.95;44.93
70555;BME280;58104;52.744;15.242;2022-12-18T11:36:39;102812.21;;;14.25;44.09
70555;BME280;58104;52.744;15.242;2022-12-18T11:39:10;102810.38;;;14.49;45.23
70555;BME280;58104;52.744;15.242;2022-12-18T11:41:30;102810.97;;;14.69;45.86
70555;BME280;58104;52.744;15.242;2022-12-18T11:43:55;102811.91;;;14.59;45.17
70555;BME280;58104;52.744;15.242;2022-12-18T11:46:23;102812.18;;;14.64;43.91
70555;BME280;58104;52.744;15.242;2022-12-18T11:48:45;102812.71;;;14.71;44.46
70555;BME280;58104;52.744;15.242;2022-12-18T11:51:12;102807.41;;;14.70;43.90
70555;BME280;58104;52.744;15.242;2022-12-18T11:53:34;102795.12;;;14.72;43.50
70555;BME280;58104;52.744;15.242;2022-12-18T11:56:05;102795.65;;;14.79;43.85
70555;BME280;58104;52.744;15.242;2022-12-18T11:58:38;102788.92;;;14.79;44.53
70555;BME280;58104;52.744;15.242;2022-12-18T12:00:57;102786.69;;;14.97;43.47
70555;BME280;58104;52.744;15.242;2022-12-18T12:03:27;102790.82;;;15.00;42.11
70555;BME280;58104;52.744;15.242;2022-12-18T12:05:50;102784.38;;;14.97;43.17
70555;BME280;58104;52.744;15.242;2022-12-18T12:08:14;102784.36;;;15.06;42.63
70555;BME280;58104;52.744;15.242;2022-12-18T12:10:42;102765.59;;;15.09;42.52
70555;BME280;58104;52.744;15.242;2022-12-18T12:13:11;102764.24;;;15.14;42.75
70555;BME280;58104;52.744;15.242;2022-12-18T12:15:31;102772.70;;;15.08;42.29
70555;BME280;58104;52.744;15.242;2022-12-18T12:17:54;102783.16;;;14.99;41.15
70555;BME280;58104;52.744;15.242;2022-12-18T12:20:21;102786.65;;;14.98;41.93
70555;BME280;58104;52.744;15.242;2022-12-18T12:22:46;102783.02;;;14.93;42.46
70555;BME280;58104;52.744;15.242;2022-12-18T12:25:18;102785.65;;;14.92;42.01
70555;BME280;58104;52.744;15.242;2022-12-18T12:27:40;102789.24;;;14.98;41.52
70555;BME280;58104;52.744;15.242;2022-12-18T12:30:04;102796.36;;;14.96;41.70
70555;BME280;58104;52.744;15.242;2022-12-18T12:32:36;102792.19;;;14.75;41.09
70555;BME280;58104;52.744;15.242;2022-12-18T12:34:58;102791.41;;;14.72;41.72
70555;BME280;58104;52.744;15.242;2022-12-18T12:37:23;102790.88;;;14.77;42.06
70555;BME280;58104;52.744;15.242;2022-12-18T12:39:42;102793.15;;;14.82;41.98